Time;durP1;ratioP1;P1;durP2;ratioP2;P2;SDS_P1;SDS_P2;PMS_P1;PMS_P2;Temp;Humidity;BMP_temperature;BMP_pressure;BME280_temperature;BME280_humidity;BME280_pressure;Samples;Min_cycle;Max_cycle;Signal;HPM_P1;HPM_P2
2023/12/01 00:00:05;;;;;;;19.50;10.23;;;0.30;99.90;;;;;;5114548;27;20070;-60
2023/12/01 00:02:31;;;;;;;21.48;9.68;;;0.40;99.90;;;;;;5114548;27;20053;-60
2023/12/01 00:04:57;;;;;;;22.80;11.38;;;0.40;99.90;;;;;;5131305;27;20130;-60
2023/12/01 00:07:22;;;;;;;22.05;10.80;;;0.40;99.90;;;;;;5131908;27;20039;-60
2023/12/01 00:09:48;;;;;;;18.77;9.88;;;0.40;99.90;;;;;;5132140;27;20039;-60
2023/12/01 00:12:14;;;;;;;27.02;10.38;;;0.40;99.90;;;;;;5125969;27;20039;-60
2023/12/01 00:14:41;;;;;;;20.17;10.25;;;0.40;99.90;;;;;;5132976;28;20548;-60
2023/12/01 00:17:07;;;;;;;21.63;10.18;;;0.40;99.90;;;;;;5120457;28;20054;-60
2023/12/01 00:19:33;;;;;;;25.25;10.38;;;0.40;99.90;;;;;;5131053;28;20530;-60
2023/12/01 00:21:58;;;;;;;25.30;11.13;;;0.40;99.90;;;;;;5131973;28;20059;-60
2023/12/01 00:24:24;;;;;;;23.38;10.50;;;0.40;99.90;;;;;;5118661;28;20457;-60
2023/12/01 00:26:50;;;;;;;23.42;10.63;;;0.30;99.90;;;;;;5096900;28;20089;-60
2023/12/01 00:29:15;;;;;;;21.98;10.13;;;0.30;99.90;;;;;;5114829;28;20456;-59
2023/12/01 00:31:41;;;;;;;25.90;12.30;;;0.30;99.90;;;;;;5114756;28;20075;-59
2023/12/01 00:34:06;;;;;;;22.35;10.82;;;0.30;99.90;;;;;;5123896;28;20515;-59
2023/12/01 00:36:33;;;;;;;25.42;12.23;;;0.30;99.90;;;;;;5131287;28;20043;-60
2023/12/01 00:38:59;;;;;;;27.75;11.43;;;0.30;99.90;;;;;;5131969;28;20047;-60
2023/12/01 00:41:25;;;;;;;29.73;12.75;;;0.30;99.90;;;;;;5130105;28;20039;-60
2023/12/01 00:43:51;;;;;;;25.90;11.32;;;0.30;99.90;;;;;;5097339;28;20392;-60
2023/12/01 00:46:17;;;;;;;27.63;13.02;;;0.30;99.90;;;;;;5113997;28;20050;-60
2023/12/01 00:48:43;;;;;;;26.90;12.95;;;0.20;99.90;;;;;;5114542;28;20043;-60
2023/12/01 00:51:16;;;;;;;26.42;11.63;;;0.20;99.90;;;;;;5114583;28;20035;-60
2023/12/01 00:53:43;;;;;;;30.83;12.75;;;0.20;99.90;;;;;;5096543;28;20054;-60
2023/12/01 00:56:13;;;;;;;31.35;12.50;;;0.20;99.90;;;;;;5097106;28;20058;-60
2023/12/01 00:58:39;;;;;;;27.02;13.27;;;0.20;99.90;;;;;;5114447;28;20391;-59
2023/12/01 01:01:06;;;;;;;28.92;12.65;;;0.20;99.90;;;;;;5096866;28;20043;-60
2023/12/01 01:03:35;;;;;;;28.42;12.90;;;0.20;99.90;;;;;;5114028;28;20501;-60
2023/12/01 01:06:01;;;;;;;29.30;12.32;;;0.10;99.90;;;;;;5114902;28;20039;-60
2023/12/01 01:08:30;;;;;;;25.55;12.07;;;0.20;99.90;;;;;;5113303;28;20047;-60
2023/12/01 01:10:56;;;;;;;28.27;11.85;;;0.10;99.90;;;;;;5116708;27;20491;-60
2023/12/01 01:13:23;;;;;;;25.75;12.43;;;0.10;99.90;;;;;;5131991;27;20035;-60
2023/12/01 01:15:49;;;;;;;30.48;13.68;;;0.10;99.90;;;;;;5118660;27;20052;-60
2023/12/01 01:18:15;;;;;;;26.10;12.85;;;0.10;99.90;;;;;;5100823;27;20108;-60
2023/12/01 01:20:40;;;;;;;26.38;12.65;;;0.00;99.90;;;;;;5097624;28;20365;-60
2023/12/01 01:23:06;;;;;;;34.17;14.02;;;0.10;99.90;;;;;;5096949;28;20422;-60
2023/12/01 01:25:32;;;;;;;27.90;11.95;;;0.00;99.90;;;;;;5097006;28;20126;-60
2023/12/01 01:27:57;;;;;;;30.45;14.90;;;0.00;99.90;;;;;;5097616;28;20045;-60
2023/12/01 01:30:23;;;;;;;29.67;12.95;;;0.00;99.90;;;;;;5096482;28;20048;-60
2023/12/01 01:32:49;;;;;;;29.58;14.40;;;-0.10;99.90;;;;;;5097518;28;20047;-60
2023/12/01 01:35:15;;;;;;;27.75;13.27;;;0.00;99.90;;;;;;5110810;27;20054;-60
2023/12/01 01:37:41;;;;;;;28.67;12.85;;;-0.10;99.90;;;;;;5116708;27;20043;-60
2023/12/01 01:40:09;;;;;;;33.65;13.43;;;-0.10;99.90;;;;;;5100848;27;20050;-60
2023/12/01 01:42:35;;;;;;;26.85;12.35;;;-0.20;99.90;;;;;;5116580;27;20075;-60
2023/12/01 01:45:00;;;;;;;26.50;12.00;;;-0.20;99.90;;;;;;5117538;27;20070;-59
2023/12/01 01:47:26;;;;;;;29.27;12.27;;;-0.20;99.90;;;;;;5117311;27;20057;-60
2023/12/01 01:49:54;;;;;;;32.15;13.25;;;-0.20;99.90;;;;;;5116385;27;20487;-60
2023/12/01 01:52:21;;;;;;;28.55;12.45;;;-0.20;99.90;;;;;;5115845;27;20489;-60
2023/12/01 01:54:46;;;;;;;33.25;13.90;;;-0.20;99.90;;;;;;5117269;27;20050;-60
2023/12/01 01:57:12;;;;;;;33.22;15.18;;;-0.20;99.90;;;;;;5133293;27;20483;-59
2023/12/01 01:59:38;;;;;;;30.45;13.35;;;-0.30;99.90;;;;;;5129232;27;20050;-60
2023/12/01 02:02:03;;;;;;;31.67;13.80;;;-0.30;99.90;;;;;;5117204;27;20057;-60
2023/12/01 02:04:29;;;;;;;28.15;14.57;;;-0.30;99.90;;;;;;5116586;27;20043;-60
2023/12/01 02:06:55;;;;;;;35.10;14.73;;;-0.30;99.90;;;;;;5116885;27;20070;-60
2023/12/01 02:09:21;;;;;;;33.85;15.63;;;-0.30;99.90;;;;;;5116756;27;20035;-60
2023/12/01 02:11:46;;;;;;;31.98;13.73;;;-0.30;99.90;;;;;;5116039;27;20043;-60
2023/12/01 02:14:13;;;;;;;34.90;15.65;;;-0.20;99.90;;;;;;5116871;27;20121;-60
2023/12/01 02:16:45;;;;;;;28.70;13.88;;;-0.20;99.90;;;;;;5116504;27;20055;-60
2023/12/01 02:19:14;;;;;;;32.60;13.18;;;-0.20;99.90;;;;;;5116266;27;20047;-60
2023/12/01 02:21:45;;;;;;;32.47;14.68;;;-0.20;99.90;;;;;;5116118;27;20041;-60
2023/12/01 02:24:11;;;;;;;31.02;15.25;;;-0.30;99.90;;;;;;5116410;27;20077;-60
2023/12/01 02:26:37;;;;;;;28.73;12.50;;;-0.20;99.90;;;;;;5115681;27;20451;-60
2023/12/01 02:29:06;;;;;;;30.73;14.50;;;-0.30;99.90;;;;;;5116799;27;20042;-60
2023/12/01 02:31:32;;;;;;;27.50;13.55;;;-0.30;99.90;;;;;;5115941;27;20047;-60
2023/12/01 02:33:59;;;;;;;29.83;13.82;;;-0.30;99.90;;;;;;5115916;27;20544;-60
2023/12/01 02:36:25;;;;;;;30.13;14.05;;;-0.40;99.90;;;;;;5116419;27;20610;-60
2023/12/01 02:38:50;;;;;;;27.67;13.57;;;-0.40;99.90;;;;;;5123965;27;20118;-60
2023/12/01 02:41:17;;;;;;;28.45;13.90;;;-0.50;99.90;;;;;;5133162;27;20043;-60
2023/12/01 02:43:43;;;;;;;28.38;15.02;;;-0.50;99.90;;;;;;5134709;27;20084;-60
2023/12/01 02:46:12;;;;;;;25.67;13.82;;;-0.60;99.90;;;;;;5132516;27;20039;-60
2023/12/01 02:48:41;;;;;;;25.45;13.57;;;-0.50;99.90;;;;;;5133441;27;20031;-60
2023/12/01 02:51:07;;;;;;;29.45;14.23;;;-0.50;99.90;;;;;;5133355;27;20084;-60
2023/12/01 02:53:33;;;;;;;30.33;13.27;;;-0.50;99.90;;;;;;5132702;27;20039;-60
2023/12/01 02:56:00;;;;;;;26.70;13.23;;;-0.50;99.90;;;;;;5133273;27;20070;-60
2023/12/01 02:58:25;;;;;;;30.90;15.07;;;-0.50;99.90;;;;;;5133189;27;20126;-60
2023/12/01 03:00:51;;;;;;;29.52;14.48;;;-0.50;99.90;;;;;;5132267;27;20156;-60
2023/12/01 03:03:17;;;;;;;31.33;13.30;;;-0.50;99.90;;;;;;5120420;27;20053;-60
2023/12/01 03:05:42;;;;;;;32.30;14.07;;;-0.50;99.90;;;;;;5116000;27;20031;-60
2023/12/01 03:08:08;;;;;;;32.78;14.00;;;-0.50;99.90;;;;;;5115102;27;20114;-60
2023/12/01 03:10:35;;;;;;;26.77;12.85;;;-0.60;99.90;;;;;;5115983;28;20544;-60
2023/12/01 03:13:00;;;;;;;29.65;13.30;;;-0.50;99.90;;;;;;5115924;27;20035;-60
2023/12/01 03:15:26;;;;;;;34.78;18.05;;;-0.50;99.90;;;;;;5115228;27;20038;-60
2023/12/01 03:17:52;;;;;;;55.10;29.73;;;-0.50;99.90;;;;;;5126661;27;20483;-60
2023/12/01 03:20:18;;;;;;;125.05;58.85;;;-0.60;99.90;;;;;;5132878;27;20129;-60
2023/12/01 03:22:46;;;;;;;98.20;53.13;;;-0.60;99.90;;;;;;5131742;27;20126;-60
2023/12/01 03:25:12;;;;;;;91.28;44.53;;;-0.60;99.90;;;;;;5132481;27;20514;-60
2023/12/01 03:27:42;;;;;;;80.57;44.08;;;-0.70;99.90;;;;;;5132945;27;20487;-60
2023/12/01 03:30:13;;;;;;;70.10;35.17;;;-0.70;99.90;;;;;;5114682;27;20047;-60
2023/12/01 03:32:48;;;;;;;186.30;91.50;;;-0.70;99.90;;;;;;5102339;27;20035;-60
2023/12/01 03:35:15;;;;;;;167.93;80.93;;;-0.70;99.90;;;;;;5113708;27;20126;-60
2023/12/01 03:37:41;;;;;;;73.22;37.83;;;-0.70;99.90;;;;;;5114956;27;20095;-60
2023/12/01 03:40:09;;;;;;;46.88;23.73;;;-0.70;99.90;;;;;;5115507;27;20039;-60
2023/12/01 03:42:43;;;;;;;47.17;24.95;;;-0.70;99.90;;;;;;5114903;27;20781;-60
2023/12/01 03:45:12;;;;;;;34.80;17.25;;;-0.70;99.90;;;;;;5115321;27;20043;-60
2023/12/01 03:47:39;;;;;;;29.77;14.20;;;-0.80;99.90;;;;;;5098321;27;20039;-60
2023/12/01 03:50:06;;;;;;;33.85;15.60;;;-0.90;99.90;;;;;;5114918;27;20058;-60
2023/12/01 03:52:31;;;;;;;29.17;13.68;;;-0.90;99.90;;;;;;5114925;27;20118;-60
2023/12/01 03:55:01;;;;;;;24.40;11.85;;;-0.90;99.90;;;;;;5114949;27;20122;-60
2023/12/01 03:57:27;;;;;;;30.17;15.10;;;-0.90;99.90;;;;;;5114280;27;20419;-60
2023/12/01 03:59:54;;;;;;;25.55;12.90;;;-0.90;99.90;;;;;;5115516;27;20072;-60
2023/12/01 04:02:21;;;;;;;27.67;13.68;;;-0.80;99.90;;;;;;5114808;27;20054;-60
2023/12/01 04:04:47;;;;;;;26.80;13.40;;;-0.90;99.90;;;;;;5113958;27;20077;-60
2023/12/01 04:07:13;;;;;;;29.35;14.27;;;-0.90;99.90;;;;;;5114710;27;20045;-60
2023/12/01 04:09:39;;;;;;;29.40;13.05;;;-1.00;99.90;;;;;;5114719;27;20114;-60
2023/12/01 04:12:05;;;;;;;26.98;12.95;;;-1.00;99.90;;;;;;5114244;28;20066;-60
2023/12/01 04:14:30;;;;;;;26.25;13.73;;;-1.00;99.90;;;;;;5114694;28;20050;-59
2023/12/01 04:16:56;;;;;;;29.73;13.13;;;-1.00;99.90;;;;;;5115070;28;20054;-60
2023/12/01 04:19:23;;;;;;;28.48;14.25;;;-1.10;99.90;;;;;;5113751;28;20043;-60
2023/12/01 04:21:49;;;;;;;26.83;13.77;;;-1.10;99.90;;;;;;5114770;28;20369;-60
2023/12/01 04:24:15;;;;;;;27.48;12.68;;;-1.10;99.90;;;;;;5114841;28;20046;-60
2023/12/01 04:26:40;;;;;;;29.13;14.35;;;-1.10;99.90;;;;;;5125363;28;20039;-60
2023/12/01 04:29:06;;;;;;;28.55;14.30;;;-1.10;99.90;;;;;;5133521;28;20044;-60
2023/12/01 04:31:31;;;;;;;26.35;12.52;;;-1.10;99.90;;;;;;5130641;28;20075;-60
2023/12/01 04:33:57;;;;;;;28.02;13.32;;;-1.10;99.90;;;;;;5114756;28;20067;-60
2023/12/01 04:36:23;;;;;;;24.90;12.18;;;-1.20;99.90;;;;;;5097367;28;20122;-60
2023/12/01 04:38:48;;;;;;;30.75;14.57;;;-1.20;99.90;;;;;;5114429;28;20468;-60
2023/12/01 04:41:14;;;;;;;27.50;13.25;;;-1.20;99.90;;;;;;5097607;28;20542;-60
2023/12/01 04:43:40;;;;;;;27.48;13.40;;;-1.20;99.90;;;;;;5114903;28;20035;-60
2023/12/01 04:46:06;;;;;;;30.23;14.27;;;-1.20;99.90;;;;;;5099752;27;20043;-60
2023/12/01 04:48:32;;;;;;;26.25;13.35;;;-1.30;99.90;;;;;;5118467;27;20043;-60
2023/12/01 04:50:58;;;;;;;28.33;14.15;;;-1.30;99.90;;;;;;5118674;27;20050;-60
2023/12/01 04:53:23;;;;;;;30.92;14.35;;;-1.30;99.90;;;;;;5117545;27;20035;-60
2023/12/01 04:55:49;;;;;;;30.00;14.60;;;-1.30;99.90;;;;;;5118099;27;20054;-60
2023/12/01 04:58:15;;;;;;;31.58;14.88;;;-1.30;99.90;;;;;;5101765;27;20130;-60
2023/12/01 05:00:41;;;;;;;35.33;20.08;;;-1.30;99.90;;;;;;5117589;27;20402;-60
2023/12/01 05:03:07;;;;;;;29.15;16.27;;;-1.30;99.90;;;;;;5118268;27;20126;-60
2023/12/01 05:05:34;;;;;;;29.83;15.18;;;-1.40;99.90;;;;;;5118032;27;20087;-60
2023/12/01 05:08:04;;;;;;;29.52;16.25;;;-1.40;99.90;;;;;;5117761;27;20035;-60
2023/12/01 05:10:34;;;;;;;29.48;14.48;;;-1.50;99.90;;;;;;5117442;27;20073;-60
2023/12/01 05:13:05;;;;;;;25.45;12.52;;;-1.60;99.90;;;;;;5118553;27;20078;-60
2023/12/01 05:15:33;;;;;;;25.95;13.32;;;-1.70;99.90;;;;;;5117142;27;20035;-60
2023/12/01 05:18:00;;;;;;;23.92;12.00;;;-1.70;99.90;;;;;;5118161;27;20050;-60
2023/12/01 05:20:27;;;;;;;32.17;18.10;;;-1.70;99.90;;;;;;5117635;27;20043;-60
2023/12/01 05:22:58;;;;;;;40.88;22.33;;;-1.80;99.90;;;;;;5105738;27;20067;-60
2023/12/01 05:25:32;;;;;;;41.00;21.73;;;-1.70;99.90;;;;;;5135615;27;20048;-60
2023/12/01 05:27:59;;;;;;;35.30;18.63;;;-1.70;99.90;;;;;;5117496;27;20096;-60
2023/12/01 05:30:30;;;;;;;31.48;17.00;;;-1.80;99.90;;;;;;5135363;27;20126;-60
2023/12/01 05:32:58;;;;;;;28.73;15.48;;;-1.90;99.90;;;;;;5107910;27;20064;-60
2023/12/01 05:35:24;;;;;;;35.47;16.98;;;-1.90;99.90;;;;;;5117120;27;20046;-60
2023/12/01 05:37:52;;;;;;;31.83;14.68;;;-1.80;99.90;;;;;;5117499;27;20039;-60
2023/12/01 05:40:22;;;;;;;27.95;14.00;;;-1.90;99.90;;;;;;5117874;27;20035;-60
2023/12/01 05:42:52;;;;;;;35.13;17.38;;;-1.90;99.90;;;;;;5099958;27;20472;-60
2023/12/01 05:45:20;;;;;;;30.42;15.32;;;-2.00;99.90;;;;;;5100820;27;20062;-60
2023/12/01 05:47:47;;;;;;;31.10;14.95;;;-2.00;99.90;;;;;;5134270;27;20043;-60
2023/12/01 05:50:31;;;;;;;25.20;12.60;;;-1.90;99.90;;;;;;5116797;27;20032;-60
2023/12/01 05:52:58;;;;;;;28.60;13.25;;;-2.00;99.90;;;;;;5134455;27;20039;-60
2023/12/01 05:55:29;;;;;;;27.48;13.88;;;-2.10;99.90;;;;;;5134296;27;20055;-60
2023/12/01 05:58:01;;;;;;;29.90;13.73;;;-2.00;99.90;;;;;;5115828;27;20111;-60
2023/12/01 06:00:31;;;;;;;25.33;13.38;;;-2.10;99.90;;;;;;5135428;27;20079;-60
2023/12/01 06:03:06;;;;;;;40.88;17.77;;;-2.10;99.90;;;;;;5121812;27;20035;-60
2023/12/01 06:05:36;;;;;;;34.25;16.15;;;-2.10;99.90;;;;;;5099856;27;20039;-61
2023/12/01 06:08:03;;;;;;;34.40;17.25;;;-2.00;99.90;;;;;;5117202;27;20050;-61
2023/12/01 06:10:31;;;;;;;31.50;16.98;;;-2.10;99.90;;;;;;5115958;27;20536;-61
2023/12/01 06:12:58;;;;;;;30.02;15.77;;;-2.20;99.90;;;;;;5117103;27;20047;-60
2023/12/01 06:15:29;;;;;;;32.92;15.95;;;-2.20;99.90;;;;;;5116828;27;20039;-61
2023/12/01 06:17:55;;;;;;;30.13;16.10;;;-2.20;99.90;;;;;;5116285;27;20043;-61
2023/12/01 06:20:22;;;;;;;34.72;18.45;;;-2.30;99.90;;;;;;5117237;27;20487;-61
2023/12/01 06:22:58;;;;;;;32.58;15.25;;;-2.30;99.90;;;;;;5117585;27;20189;-61
2023/12/01 06:25:29;;;;;;;33.90;17.02;;;-2.30;99.90;;;;;;5098771;27;20039;-61
2023/12/01 06:28:02;;;;;;;32.78;16.85;;;-2.30;99.90;;;;;;5116718;27;20096;-61
2023/12/01 06:30:33;;;;;;;29.65;13.48;;;-2.30;99.90;;;;;;5099376;27;20035;-61
2023/12/01 06:33:00;;;;;;;30.70;13.00;;;-2.30;99.90;;;;;;5130829;27;20381;-61
2023/12/01 06:35:26;;;;;;;24.52;12.55;;;-2.40;99.90;;;;;;5133708;27;20039;-61
2023/12/01 06:37:52;;;;;;;29.73;13.80;;;-2.50;99.90;;;;;;5133841;27;20062;-61
2023/12/01 06:40:20;;;;;;;28.65;13.00;;;-2.50;99.90;;;;;;5116480;27;20043;-61
2023/12/01 06:42:46;;;;;;;28.55;15.23;;;-2.50;99.90;;;;;;5116358;27;20126;-61
2023/12/01 06:45:14;;;;;;;30.60;13.18;;;-2.50;99.90;;;;;;5098354;27;20047;-61
2023/12/01 06:47:42;;;;;;;32.05;15.00;;;-2.50;99.90;;;;;;5116122;27;20043;-61
2023/12/01 06:50:11;;;;;;;27.25;13.85;;;-2.60;99.90;;;;;;5116203;27;20087;-61
2023/12/01 06:52:43;;;;;;;24.70;12.85;;;-2.60;99.90;;;;;;5115056;27;20079;-61
2023/12/01 06:55:09;;;;;;;28.38;14.32;;;-2.60;99.90;;;;;;5116124;27;20051;-61
2023/12/01 06:57:46;;;;;;;26.15;12.43;;;-2.60;99.90;;;;;;5099126;27;20051;-61
2023/12/01 07:00:29;;;;;;;31.85;15.35;;;-2.50;99.90;;;;;;5115500;27;20404;-61
2023/12/01 07:02:59;;;;;;;28.10;13.65;;;-2.50;99.90;;;;;;5121476;27;20044;-61
2023/12/01 07:05:26;;;;;;;25.67;12.88;;;-2.50;99.90;;;;;;5120052;27;20543;-61
2023/12/01 07:07:53;;;;;;;33.20;15.73;;;-2.50;99.90;;;;;;5131818;27;20118;-61
2023/12/01 07:10:19;;;;;;;31.65;14.73;;;-2.50;99.90;;;;;;5133002;27;20047;-61
2023/12/01 07:12:45;;;;;;;33.28;15.98;;;-2.50;99.90;;;;;;5115930;27;20043;-61
2023/12/01 07:15:13;;;;;;;34.30;16.33;;;-2.60;99.90;;;;;;5114410;27;20066;-61
2023/12/01 07:17:39;;;;;;;28.02;14.32;;;-2.60;99.90;;;;;;5115983;27;20376;-61
2023/12/01 07:20:14;;;;;;;34.58;15.63;;;-2.60;99.90;;;;;;5098701;27;20039;-61
2023/12/01 07:22:59;;;;;;;28.27;14.43;;;-2.60;99.90;;;;;;5133945;27;20087;-61
2023/12/01 07:25:25;;;;;;;28.80;15.55;;;-2.60;99.90;;;;;;5126307;27;20129;-61
2023/12/01 07:28:05;;;;;;;36.75;17.13;;;-2.70;99.90;;;;;;5114063;27;20047;-61
2023/12/01 07:30:31;;;;;;;36.88;16.35;;;-2.70;99.90;;;;;;5117997;27;20035;-61
2023/12/01 07:32:59;;;;;;;35.90;17.67;;;-2.70;99.90;;;;;;5130053;27;20140;-61
2023/12/01 07:35:25;;;;;;;43.70;19.17;;;-2.70;99.90;;;;;;5129332;27;20782;-61
2023/12/01 07:37:52;;;;;;;36.22;17.10;;;-2.70;99.90;;;;;;5129612;27;20047;-61
2023/12/01 07:40:21;;;;;;;34.10;17.88;;;-2.70;99.90;;;;;;5112630;27;20103;-61
2023/12/01 07:42:48;;;;;;;34.75;14.57;;;-2.70;99.90;;;;;;5119024;27;20525;-61
2023/12/01 07:45:17;;;;;;;31.33;13.98;;;-2.70;99.90;;;;;;5112265;27;20510;-61
2023/12/01 07:47:46;;;;;;;29.27;13.88;;;-2.60;99.90;;;;;;5110749;27;20047;-61
2023/12/01 07:50:14;;;;;;;28.25;14.45;;;-2.50;99.90;;;;;;5111579;27;20038;-62
2023/12/01 07:52:44;;;;;;;31.05;14.13;;;-2.50;99.90;;;;;;5111638;27;20135;-62
2023/12/01 07:55:10;;;;;;;30.42;14.43;;;-2.50;99.90;;;;;;5094605;27;20050;-61
2023/12/01 07:57:37;;;;;;;35.88;18.98;;;-2.50;99.90;;;;;;5091220;28;20048;-61
2023/12/01 08:00:05;;;;;;;56.40;40.55;;;-2.50;99.90;;;;;;5102981;27;20050;-62
2023/12/01 08:02:31;;;;;;;43.22;28.23;;;-2.50;99.90;;;;;;5103522;27;20441;-62
2023/12/01 08:04:57;;;;;;;39.03;22.38;;;-2.50;99.90;;;;;;5094301;27;20118;-63
2023/12/01 08:07:23;;;;;;;38.28;20.13;;;-2.40;99.90;;;;;;5111929;27;20118;-62
2023/12/01 08:09:48;;;;;;;39.22;19.58;;;-2.40;99.90;;;;;;5094250;28;20047;-62
2023/12/01 08:12:18;;;;;;;35.72;19.40;;;-2.40;99.90;;;;;;5111487;28;20110;-62
2023/12/01 08:14:44;;;;;;;37.47;18.20;;;-2.40;99.90;;;;;;5111634;28;20047;-62
2023/12/01 08:17:10;;;;;;;32.58;15.85;;;-2.30;99.90;;;;;;5110586;28;20051;-62
2023/12/01 08:19:36;;;;;;;34.67;19.30;;;-2.30;99.90;;;;;;5113249;27;20046;-62
2023/12/01 08:22:01;;;;;;;32.63;17.48;;;-2.20;99.90;;;;;;5110775;28;20514;-62
2023/12/01 08:24:27;;;;;;;40.92;20.00;;;-2.20;99.90;;;;;;5112509;28;20070;-62
2023/12/01 08:26:53;;;;;;;36.35;19.25;;;-2.20;99.90;;;;;;5111309;28;20053;-62
2023/12/01 08:29:18;;;;;;;43.15;22.05;;;-2.10;99.90;;;;;;5110946;28;20089;-62
2023/12/01 08:31:45;;;;;;;48.97;26.17;;;-2.10;99.90;;;;;;5110752;28;20505;-62
2023/12/01 08:34:12;;;;;;;45.53;22.10;;;-2.00;99.90;;;;;;5111558;28;20050;-62
2023/12/01 08:36:37;;;;;;;46.50;24.13;;;-2.00;99.90;;;;;;5114231;28;20417;-62
2023/12/01 08:39:04;;;;;;;57.50;35.35;;;-1.90;99.90;;;;;;5111410;28;20050;-62
2023/12/01 08:41:30;;;;;;;58.20;32.22;;;-1.90;99.90;;;;;;5117228;28;20039;-62
2023/12/01 08:43:56;;;;;;;48.22;27.25;;;-1.80;99.90;;;;;;5111851;28;20400;-62
2023/12/01 08:46:21;;;;;;;40.65;21.00;;;-1.70;99.90;;;;;;5117176;28;20050;-62
2023/12/01 08:48:47;;;;;;;36.75;17.35;;;-1.70;99.90;;;;;;5111418;28;20039;-62
2023/12/01 08:51:13;;;;;;;32.85;17.25;;;-1.70;99.90;;;;;;5114414;28;20031;-62
2023/12/01 08:53:38;;;;;;;32.30;15.05;;;-1.60;99.90;;;;;;5113441;28;20131;-62
2023/12/01 08:56:04;;;;;;;34.88;18.90;;;-1.60;99.90;;;;;;5114194;28;20059;-62
2023/12/01 08:58:30;;;;;;;42.45;20.50;;;-1.60;99.90;;;;;;5114419;28;20091;-62
2023/12/01 09:00:56;;;;;;;36.15;17.73;;;-1.60;99.90;;;;;;5114578;28;20372;-62
2023/12/01 09:03:21;;;;;;;32.97;16.55;;;-1.60;99.90;;;;;;5113820;28;20536;-62
2023/12/01 09:05:47;;;;;;;36.22;17.92;;;-1.60;99.90;;;;;;5113157;28;20043;-62
2023/12/01 09:08:14;;;;;;;35.30;17.23;;;-1.60;99.90;;;;;;5114278;28;20416;-62
2023/12/01 09:10:39;;;;;;;35.10;16.83;;;-1.50;99.90;;;;;;5132081;28;20084;-62
2023/12/01 09:13:05;;;;;;;29.33;14.93;;;-1.50;99.90;;;;;;5114094;28;20388;-62
2023/12/01 09:15:31;;;;;;;30.52;14.63;;;-1.50;99.90;;;;;;5103935;28;20475;-62
2023/12/01 09:17:56;;;;;;;30.90;15.05;;;-1.40;99.90;;;;;;5119549;28;20051;-62
2023/12/01 09:20:22;;;;;;;30.85;15.85;;;-1.50;99.90;;;;;;5109576;28;20487;-62
2023/12/01 09:22:48;;;;;;;31.23;15.60;;;-1.50;99.90;;;;;;5102334;28;20121;-62
2023/12/01 09:25:13;;;;;;;36.53;16.20;;;-1.50;99.90;;;;;;5116367;28;20126;-62
2023/12/01 09:27:42;;;;;;;31.60;15.13;;;-1.50;99.90;;;;;;5112218;28;20106;-62
2023/12/01 09:30:13;;;;;;;30.85;14.23;;;-1.50;99.90;;;;;;5113851;28;20035;-62
2023/12/01 09:32:39;;;;;;;33.50;15.25;;;-1.50;99.90;;;;;;5098220;27;20031;-63
2023/12/01 09:35:06;;;;;;;33.53;15.70;;;-1.40;99.90;;;;;;5099011;27;20047;-62
2023/12/01 09:37:31;;;;;;;30.05;15.27;;;-1.40;99.90;;;;;;5099733;27;20042;-62
2023/12/01 09:39:57;;;;;;;25.08;12.77;;;-1.40;99.90;;;;;;5117629;27;20039;-62
2023/12/01 09:42:24;;;;;;;33.38;15.38;;;-1.30;99.90;;;;;;5116824;27;20137;-62
2023/12/01 09:44:53;;;;;;;30.83;14.88;;;-1.30;99.90;;;;;;5117845;27;20131;-62
2023/12/01 09:47:21;;;;;;;30.98;15.88;;;-1.30;99.90;;;;;;5121130;27;20399;-62
2023/12/01 09:49:49;;;;;;;34.30;17.58;;;-1.30;99.90;;;;;;5099707;27;20036;-62
2023/12/01 09:52:14;;;;;;;33.13;15.75;;;-1.30;99.90;;;;;;5100156;27;20095;-62
2023/12/01 09:54:40;;;;;;;29.75;14.25;;;-1.20;99.90;;;;;;5117352;27;20480;-62
2023/12/01 09:57:06;;;;;;;28.05;15.07;;;-1.20;99.90;;;;;;5113168;28;20051;-62
2023/12/01 09:59:42;;;;;;;29.83;13.07;;;-1.00;99.90;;;;;;5096089;28;20032;-62
2023/12/01 10:02:08;;;;;;;27.25;12.13;;;-0.90;99.90;;;;;;5112922;28;20366;-62
2023/12/01 10:04:34;;;;;;;27.13;14.43;;;-0.80;99.90;;;;;;5114012;28;20100;-62
2023/12/01 10:07:01;;;;;;;24.35;12.18;;;-0.70;99.90;;;;;;5096826;28;20122;-62
2023/12/01 10:09:32;;;;;;;29.48;14.00;;;-0.70;99.90;;;;;;5112605;28;20088;-62
2023/12/01 10:12:08;;;;;;;24.50;12.38;;;-0.80;99.90;;;;;;5113593;28;20074;-62
2023/12/01 10:14:37;;;;;;;25.40;13.82;;;-0.80;99.90;;;;;;5113407;28;20055;-63
2023/12/01 10:17:05;;;;;;;25.90;13.45;;;-0.80;99.90;;;;;;5112740;28;20047;-63
2023/12/01 10:19:33;;;;;;;26.70;12.70;;;-0.80;99.90;;;;;;5113302;28;20400;-62
2023/12/01 10:21:59;;;;;;;23.00;13.45;;;-0.80;99.90;;;;;;5113837;28;20071;-62
2023/12/01 10:24:24;;;;;;;22.50;11.70;;;-0.80;99.90;;;;;;5112565;28;20408;-62
2023/12/01 10:26:53;;;;;;;24.85;12.05;;;-0.80;99.90;;;;;;5113184;28;20032;-62
2023/12/01 10:29:28;;;;;;;26.23;12.43;;;-0.80;99.90;;;;;;5113089;28;20132;-63
2023/12/01 10:31:58;;;;;;;39.47;16.70;;;-0.70;99.90;;;;;;5112720;28;20039;-63
2023/12/01 10:34:24;;;;;;;25.70;13.95;;;-0.70;99.90;;;;;;5113306;28;20040;-62
2023/12/01 10:36:52;;;;;;;26.60;12.95;;;-0.70;99.90;;;;;;5108635;27;20049;-62
2023/12/01 10:39:24;;;;;;;27.27;15.50;;;-0.70;99.90;;;;;;5111798;28;20051;-62
2023/12/01 10:41:50;;;;;;;44.95;19.15;;;-0.70;99.90;;;;;;5094972;28;20074;-62
2023/12/01 10:44:17;;;;;;;64.50;30.33;;;-0.70;99.90;;;;;;5111112;28;20530;-62
2023/12/01 10:46:48;;;;;;;45.67;19.92;;;-0.80;99.90;;;;;;5095306;28;20031;-62
2023/12/01 10:49:17;;;;;;;34.20;19.67;;;-0.80;99.90;;;;;;5112280;28;20421;-62
2023/12/01 10:51:52;;;;;;;24.75;13.95;;;-0.80;99.90;;;;;;5110492;28;20039;-62
2023/12/01 10:54:21;;;;;;;24.70;12.45;;;-0.70;99.90;;;;;;5112466;28;20487;-62
2023/12/01 10:57:12;;;;;;;24.13;12.05;;;-0.60;99.90;;;;;;5099098;28;20492;-62
2023/12/01 10:59:38;;;;;;;26.83;12.45;;;-0.60;99.90;;;;;;5111002;28;20560;-62
2023/12/01 11:02:05;;;;;;;22.65;11.73;;;-0.60;99.90;;;;;;5111549;28;20483;-61
2023/12/01 11:04:33;;;;;;;20.92;11.40;;;-0.60;99.90;;;;;;5110295;28;20047;-62
2023/12/01 11:07:08;;;;;;;24.20;13.57;;;-0.50;99.90;;;;;;5112936;27;20036;-62
2023/12/01 11:10:01;;;;;;;24.98;12.25;;;-0.40;99.90;;;;;;5117122;27;20040;-62
2023/12/01 11:12:31;;;;;;;22.55;13.50;;;-0.40;99.90;;;;;;5111199;28;20504;-62
2023/12/01 11:15:06;;;;;;;23.65;11.68;;;-0.40;99.90;;;;;;5121203;27;20069;-61
2023/12/01 11:17:32;;;;;;;23.30;11.57;;;-0.40;99.90;;;;;;5106186;28;20051;-62
2023/12/01 11:19:58;;;;;;;24.83;12.43;;;-0.40;99.90;;;;;;5111288;28;20035;-62
2023/12/01 11:22:27;;;;;;;29.38;17.98;;;-0.40;99.90;;;;;;5123632;27;20035;-61
2023/12/01 11:24:53;;;;;;;22.83;11.45;;;-0.50;99.90;;;;;;5115084;27;20361;-62
2023/12/01 11:27:19;;;;;;;23.50;12.55;;;-0.50;99.90;;;;;;5113292;27;20043;-62
2023/12/01 11:30:06;;;;;;;25.45;11.93;;;-0.40;99.90;;;;;;5112053;28;20040;-62
2023/12/01 11:32:35;;;;;;;25.30;12.90;;;-0.20;99.90;;;;;;5111851;28;20051;-62
2023/12/01 11:35:12;;;;;;;23.83;13.15;;;0.10;99.90;;;;;;5110949;27;20043;-61
2023/12/01 11:37:56;;;;;;;22.98;11.88;;;0.20;99.90;;;;;;5094454;28;20118;-62
2023/12/01 11:40:22;;;;;;;22.70;10.57;;;0.20;99.90;;;;;;5111256;28;20036;-62
2023/12/01 11:42:50;;;;;;;25.75;12.75;;;0.20;99.90;;;;;;5110858;28;20071;-62
2023/12/01 11:45:16;;;;;;;22.10;11.70;;;0.00;99.90;;;;;;5111200;28;20036;-62
2023/12/01 11:47:42;;;;;;;25.88;11.27;;;-0.10;99.90;;;;;;5110508;28;20093;-63
2023/12/01 11:50:13;;;;;;;24.73;11.93;;;-0.20;99.90;;;;;;5110570;28;20078;-62
2023/12/01 11:52:39;;;;;;;21.75;11.85;;;-0.20;99.90;;;;;;5111840;28;20475;-63
2023/12/01 11:55:15;;;;;;;21.00;11.45;;;-0.20;99.90;;;;;;5110732;27;20118;-63
2023/12/01 11:57:53;;;;;;;24.90;12.63;;;-0.20;99.90;;;;;;5113528;27;20058;-63
2023/12/01 12:00:19;;;;;;;23.95;11.82;;;-0.30;99.90;;;;;;5114663;27;20035;-62
2023/12/01 12:02:46;;;;;;;24.38;12.52;;;-0.20;99.90;;;;;;5113158;28;20039;-62
2023/12/01 12:05:12;;;;;;;22.33;12.02;;;-0.20;99.90;;;;;;5113817;27;20043;-63
2023/12/01 12:07:38;;;;;;;23.67;12.85;;;-0.20;99.90;;;;;;5114957;27;20060;-63
2023/12/01 12:10:07;;;;;;;23.65;12.15;;;-0.20;99.90;;;;;;5132708;27;20372;-63
2023/12/01 12:12:34;;;;;;;24.65;13.85;;;-0.30;99.90;;;;;;5114841;27;20039;-63
2023/12/01 12:15:09;;;;;;;22.10;12.32;;;-0.20;99.90;;;;;;5114932;28;20483;-63
2023/12/01 12:17:37;;;;;;;77.47;39.92;;;-0.10;99.90;;;;;;5113566;28;20043;-63
2023/12/01 12:20:04;;;;;;;42.83;24.15;;;-0.10;99.90;;;;;;5115045;28;20120;-63
2023/12/01 12:22:30;;;;;;;28.98;13.93;;;-0.10;99.90;;;;;;5097220;28;20092;-63
2023/12/01 12:24:56;;;;;;;24.27;11.80;;;-0.10;99.90;;;;;;5113887;28;20031;-62
2023/12/01 12:27:21;;;;;;;26.15;15.20;;;-0.10;99.90;;;;;;5114582;28;20035;-63
2023/12/01 12:29:47;;;;;;;26.27;14.15;;;0.10;99.90;;;;;;5119076;28;20031;-63